Burbank, CA

5:52 PM PDT on May 25, 2015 (GMT -0700)
Castle Heights | | Change Station
CLOSE
Current Station
Personal Weather Station
Location: Glendale, CA
Elevation: 771 ft
Nearby Weather Stations

Elev 771 ft 34.18 °N, 118.29 °W | Updated 24 seconds ago

Clear
Clear
71.1 °F
Feels Like 76 °F
N
2.0
Wind Variable Wind from ESE
Gusts 3.0 mph

Today
High -- | Low -- °F
--% Chance of Precip.
Yesterday
High -- | Low -- °F
Precip. -- in
5:45 AM 7:55 PM
First Quarter, 53% visible
Pressure 29.91 in
Visibility 10.0 miles
Clouds Clear
Heat Index 76 °F
Dew Point 56 °F
Humidity 60%
Rainfall 0.00 in
Snow Depth Not available.
UV 4 out of 12
Pollen 3.90 out of 12
Air Quality Not available.
Flu Activity Sporadic
METAR KBUR 252353Z VRB05KT 10SM CLR 22/12 A2994 RMK AO2 SLP127 T02220117 10222 20172 58010

More Conditions Fewer Conditions

Pressure 29.91 in
Visibility 10.0 miles
Clouds Clear
Heat Index 76 °F
Dew Point 56 °F
Humidity 60%
Rainfall 0.00 in
Snow Depth Not available.
UV 4 out of 12
Pollen 3.90 out of 12
Air Quality Not available.
Flu Activity Sporadic
METAR KBUR 252353Z VRB05KT 10SM CLR 22/12 A2994 RMK AO2 SLP127 T02220117 10222 20172 58010

More Conditions Fewer Conditions

10-Day Weather Forecast

Almanac

Astronomy

May. 25, 2015 Rise Set
Actual Time
Civil Twilight
Nautical Twilight
Astronomical Twilight
Moon
Length of Visible Light
Length of Day
Tomorrow will be .
, % of the Moon is Illuminated

Today's Extremes

State Highs State Lows

Community

WunderPhotos

Upload Photos

1,824,190 photos uploaded!

WunderBlogs® & News

Nearby

Air Quality

  Air Quality AQ Index Pollutant
Not available.

Snow Depth

Station Depth Elevation

Earthquake Activity

City Distance Mag. Time & Date
Minimum magnitude displayed is 2.5.

Coastal Water Temperatures

Place Temperature

Stations

Nearby Weather Stations

Station Location Temp. Windchill Dew Point Humidity Wind Precip. Elev Updated Type